createdAt,value
2017-09-29T00:01:09.444Z,28.63
2017-09-29T00:03:36.126Z,29.53
2017-09-29T00:06:02.804Z,27.40
2017-09-29T00:08:29.478Z,28.73
2017-09-29T00:10:56.132Z,29.30
2017-09-29T00:13:22.788Z,28.37
2017-09-29T00:15:49.456Z,29.63
2017-09-29T00:18:16.108Z,29.40
2017-09-29T00:20:42.776Z,27.07
2017-09-29T00:23:09.425Z,28.40
2017-09-29T00:25:36.090Z,28.10
2017-09-29T00:28:02.764Z,28.83
2017-09-29T00:30:29.411Z,28.93
2017-09-29T00:32:56.098Z,28.60
2017-09-29T00:35:22.768Z,29.33
2017-09-29T00:37:49.448Z,29.87
2017-09-29T00:40:16.105Z,28.27
2017-09-29T00:42:42.787Z,28.80
2017-09-29T00:45:09.627Z,29.87
2017-09-29T00:47:36.292Z,29.50
2017-09-29T00:50:03.115Z,29.43
2017-09-29T00:52:29.757Z,29.97
2017-09-29T00:54:56.407Z,29.47
2017-09-29T00:57:23.348Z,30.07
2017-09-29T00:59:49.999Z,33.53
2017-09-29T01:02:16.643Z,30.13
2017-09-29T01:04:43.316Z,31.20
2017-09-29T01:07:09.980Z,34.63
2017-09-29T01:09:36.631Z,33.07
2017-09-29T01:12:03.321Z,33.97
2017-09-29T01:14:30.009Z,33.20
2017-09-29T01:16:56.670Z,32.87
2017-09-29T01:19:23.357Z,33.60
2017-09-29T01:21:50.006Z,33.03
2017-09-29T01:24:16.652Z,32.40
2017-09-29T01:26:43.323Z,31.00
2017-09-29T01:29:10.000Z,31.10
2017-09-29T01:31:36.849Z,32.10
2017-09-29T01:34:03.500Z,32.43
2017-09-29T01:36:30.151Z,35.00
2017-09-29T01:38:56.827Z,37.57
2017-09-29T01:41:23.476Z,36.20
2017-09-29T01:43:50.161Z,33.93
2017-09-29T01:46:16.821Z,36.93
2017-09-29T01:48:43.498Z,35.97
2017-09-29T01:51:10.143Z,37.07
2017-09-29T01:53:36.819Z,35.17
2017-09-29T01:56:03.636Z,37.57
2017-09-29T01:58:30.289Z,32.80
2017-09-29T02:00:56.939Z,26.17
2017-09-29T02:03:24.177Z,32.27
2017-09-29T02:05:50.821Z,32.27
2017-09-29T02:08:17.480Z,30.20
2017-09-29T02:10:44.153Z,32.70
2017-09-29T02:13:10.820Z,32.33
2017-09-29T02:15:37.688Z,30.97
2017-09-29T02:18:04.370Z,34.40
2017-09-29T02:20:31.044Z,32.63
2017-09-29T02:22:57.719Z,33.03
2017-09-29T02:25:24.371Z,29.70
2017-09-29T02:27:51.398Z,32.20
2017-09-29T02:30:18.051Z,30.53
2017-09-29T02:32:44.704Z,33.33
2017-09-29T02:35:11.394Z,35.00
2017-09-29T02:37:38.044Z,33.50
2017-09-29T02:40:04.724Z,34.37
2017-09-29T02:42:31.371Z,35.57
2017-09-29T02:44:58.041Z,34.17
2017-09-29T02:47:24.727Z,31.07
2017-09-29T02:49:51.375Z,29.20
2017-09-29T02:52:18.060Z,29.37
2017-09-29T02:54:44.712Z,31.37
2017-09-29T02:57:13.395Z,32.77
2017-09-29T02:59:41.829Z,31.00
2017-09-29T03:02:10.332Z,32.67
2017-09-29T03:04:39.793Z,32.87
2017-09-29T03:07:06.445Z,35.43
2017-09-29T03:09:33.120Z,34.47
2017-09-29T03:11:59.892Z,33.27
2017-09-29T03:14:26.585Z,33.23
2017-09-29T03:16:53.230Z,33.97
2017-09-29T03:19:19.899Z,32.77
2017-09-29T03:21:46.575Z,34.87
2017-09-29T03:24:13.262Z,34.97
2017-09-29T03:26:39.936Z,33.17
2017-09-29T03:29:06.586Z,34.67
2017-09-29T03:31:33.257Z,33.40
2017-09-29T03:33:59.915Z,30.93
2017-09-29T03:36:26.572Z,32.53
2017-09-29T03:38:53.246Z,33.00
2017-09-29T03:41:19.916Z,35.13
2017-09-29T03:43:46.597Z,36.93
2017-09-29T03:46:13.300Z,34.30
2017-09-29T03:48:39.964Z,35.40
2017-09-29T03:51:08.300Z,34.50
2017-09-29T03:53:36.379Z,38.70
2017-09-29T03:56:14.759Z,37.97
2017-09-29T03:58:43.136Z,39.73
2017-09-29T04:01:09.808Z,39.07
2017-09-29T04:03:36.459Z,35.37
2017-09-29T04:06:03.242Z,31.60
2017-09-29T04:08:30.097Z,33.93
2017-09-29T04:10:56.752Z,34.70
2017-09-29T04:13:23.431Z,35.70
2017-09-29T04:15:50.087Z,34.60
2017-09-29T04:18:16.766Z,38.37
2017-09-29T04:20:43.429Z,36.23
2017-09-29T04:23:10.332Z,32.37
2017-09-29T04:25:36.979Z,35.87
2017-09-29T04:28:03.629Z,34.27
2017-09-29T04:30:30.297Z,34.50
2017-09-29T04:32:56.965Z,33.30
2017-09-29T04:35:23.632Z,36.63
2017-09-29T04:37:50.299Z,35.77
2017-09-29T04:40:16.973Z,38.17
2017-09-29T04:42:43.647Z,40.70
2017-09-29T04:45:10.300Z,34.73
2017-09-29T04:47:36.976Z,33.20
2017-09-29T04:50:03.637Z,34.00
2017-09-29T04:52:30.281Z,31.33
2017-09-29T04:54:56.956Z,37.10
2017-09-29T04:57:23.601Z,35.17
2017-09-29T04:59:50.271Z,36.33
2017-09-29T05:02:16.926Z,38.07
2017-09-29T05:04:43.593Z,37.27
2017-09-29T05:07:10.268Z,35.97
2017-09-29T05:09:36.922Z,39.43
2017-09-29T05:12:03.872Z,37.70
2017-09-29T05:14:30.533Z,36.47
2017-09-29T05:16:57.191Z,38.07
2017-09-29T05:19:23.864Z,39.90
2017-09-29T05:21:50.508Z,41.57
2017-09-29T05:24:17.180Z,39.73
2017-09-29T05:26:43.825Z,44.30
2017-09-29T05:29:10.528Z,38.00
2017-09-29T05:31:37.182Z,38.23
2017-09-29T05:34:03.824Z,36.30
2017-09-29T05:36:30.472Z,35.33
2017-09-29T05:38:57.147Z,40.90
2017-09-29T05:41:23.807Z,37.40
2017-09-29T05:43:50.484Z,87.77
2017-09-29T05:46:17.155Z,41.07
2017-09-29T05:48:43.836Z,42.03
2017-09-29T05:51:10.485Z,36.60
2017-09-29T05:53:37.129Z,37.47
2017-09-29T05:56:03.800Z,40.23
2017-09-29T05:58:30.458Z,41.00
2017-09-29T06:00:57.128Z,37.27
2017-09-29T06:03:23.846Z,39.60
2017-09-29T06:05:50.532Z,37.13
2017-09-29T06:08:17.182Z,38.37
2017-09-29T06:10:43.851Z,35.30
2017-09-29T06:13:10.526Z,37.10
2017-09-29T06:15:37.185Z,35.83
2017-09-29T06:18:03.865Z,37.60
2017-09-29T06:20:30.512Z,35.53
2017-09-29T06:22:57.192Z,35.87
2017-09-29T06:25:23.860Z,35.47
2017-09-29T06:27:50.518Z,34.90
2017-09-29T06:30:17.197Z,36.30
2017-09-29T06:32:43.846Z,32.70
2017-09-29T06:35:10.784Z,36.40
2017-09-29T06:37:37.432Z,39.60
2017-09-29T06:40:04.098Z,39.97
2017-09-29T06:42:30.768Z,36.77
2017-09-29T06:44:57.433Z,36.13
2017-09-29T06:47:24.108Z,36.23
2017-09-29T06:49:50.785Z,36.97
2017-09-29T06:52:17.436Z,35.70
2017-09-29T06:54:44.120Z,32.67
2017-09-29T06:57:10.776Z,32.63
2017-09-29T06:59:37.444Z,29.60
2017-09-29T07:02:04.089Z,32.70
2017-09-29T07:04:31.290Z,29.20
2017-09-29T07:06:57.953Z,30.43
2017-09-29T07:09:24.600Z,30.57
2017-09-29T07:11:51.269Z,28.57
2017-09-29T07:14:17.937Z,27.60
2017-09-29T07:16:44.592Z,27.77
2017-09-29T07:19:11.241Z,28.10
2017-09-29T07:21:37.906Z,28.80
2017-09-29T07:24:04.580Z,23.70
2017-09-29T07:26:32.228Z,24.87
2017-09-29T07:29:01.396Z,25.70
2017-09-29T07:31:28.992Z,24.53
2017-09-29T07:33:55.660Z,22.53
2017-09-29T07:36:22.312Z,23.10
2017-09-29T07:38:49.277Z,23.30
2017-09-29T07:41:15.968Z,22.97
2017-09-29T07:43:42.616Z,23.73
2017-09-29T07:46:09.267Z,22.73
2017-09-29T07:48:35.940Z,24.57
2017-09-29T07:51:02.979Z,23.93
2017-09-29T07:53:29.628Z,22.37
2017-09-29T07:55:56.276Z,23.80
2017-09-29T07:58:23.330Z,21.20
2017-09-29T08:00:49.987Z,21.70
2017-09-29T08:03:16.635Z,22.20
2017-09-29T08:05:43.312Z,19.63
2017-09-29T08:08:09.989Z,20.37
2017-09-29T08:10:36.669Z,20.93
2017-09-29T08:13:03.357Z,19.67
2017-09-29T08:15:30.037Z,20.70
2017-09-29T08:17:56.681Z,20.80
2017-09-29T08:20:23.355Z,19.33
2017-09-29T08:22:50.024Z,19.90
2017-09-29T08:25:16.673Z,19.43
2017-09-29T08:27:43.344Z,21.07
2017-09-29T08:30:09.988Z,21.07
2017-09-29T08:32:36.660Z,21.90
2017-09-29T08:35:03.342Z,20.30
2017-09-29T08:37:30.023Z,19.77
2017-09-29T08:39:56.833Z,21.80
2017-09-29T08:42:23.653Z,22.77
2017-09-29T08:44:50.309Z,18.90
2017-09-29T08:47:16.990Z,19.53
2017-09-29T08:49:43.664Z,18.70
2017-09-29T08:52:10.312Z,20.00
2017-09-29T08:54:36.992Z,19.77
2017-09-29T08:57:03.640Z,18.80
2017-09-29T08:59:30.664Z,20.37
2017-09-29T09:01:57.314Z,19.57
2017-09-29T09:04:23.980Z,18.03
2017-09-29T09:06:50.644Z,17.77
2017-09-29T09:09:17.290Z,18.87
2017-09-29T09:11:44.273Z,17.97
2017-09-29T09:14:10.921Z,17.83
2017-09-29T09:16:37.564Z,17.10
2017-09-29T09:19:04.232Z,18.50
2017-09-29T09:21:30.912Z,15.60
2017-09-29T09:23:57.557Z,16.73
2017-09-29T09:26:24.228Z,16.80
2017-09-29T09:28:50.881Z,17.33
2017-09-29T09:31:17.560Z,15.20
2017-09-29T09:33:44.204Z,17.00
2017-09-29T09:36:10.906Z,16.10
2017-09-29T09:38:37.585Z,15.30
2017-09-29T09:41:04.228Z,16.07
2017-09-29T09:43:31.121Z,17.43
2017-09-29T09:45:57.768Z,15.23
2017-09-29T09:48:24.634Z,14.83
2017-09-29T09:50:51.304Z,17.67
2017-09-29T09:53:17.948Z,16.30
2017-09-29T09:55:44.619Z,14.07
2017-09-29T09:58:11.270Z,14.73
2017-09-29T10:00:37.936Z,16.43
2017-09-29T10:03:04.637Z,15.70
2017-09-29T10:05:31.283Z,17.70
2017-09-29T10:07:57.940Z,16.93
2017-09-29T10:10:24.652Z,15.57
2017-09-29T10:12:51.309Z,15.90
2017-09-29T10:15:17.984Z,14.70
2017-09-29T10:17:44.653Z,17.00
2017-09-29T10:20:11.325Z,15.87
2017-09-29T10:22:37.996Z,14.07
2017-09-29T10:25:04.686Z,15.53
2017-09-29T10:27:31.358Z,14.90
2017-09-29T10:29:58.036Z,15.13
2017-09-29T10:32:24.685Z,16.70
2017-09-29T10:34:51.368Z,16.03
2017-09-29T10:37:18.013Z,13.60
2017-09-29T10:39:44.682Z,13.03
2017-09-29T10:42:11.327Z,13.23
2017-09-29T10:44:38.268Z,15.93
2017-09-29T10:47:04.913Z,15.67
2017-09-29T10:49:31.560Z,16.43
2017-09-29T10:51:58.225Z,15.33
2017-09-29T10:54:24.881Z,15.27
2017-09-29T10:56:51.556Z,16.20
2017-09-29T10:59:18.225Z,15.70
2017-09-29T11:01:44.898Z,16.03
2017-09-29T11:04:11.563Z,16.33
2017-09-29T11:06:38.648Z,18.33
2017-09-29T11:09:05.295Z,14.80
2017-09-29T11:11:31.940Z,13.50
2017-09-29T11:13:58.615Z,14.50
2017-09-29T11:16:25.265Z,15.80
2017-09-29T11:18:51.941Z,15.20
2017-09-29T11:21:18.600Z,14.57
2017-09-29T11:23:45.251Z,14.13
2017-09-29T11:26:11.937Z,13.27
2017-09-29T11:28:38.578Z,13.50
2017-09-29T11:31:05.233Z,13.77
2017-09-29T11:33:31.912Z,13.60
2017-09-29T11:35:58.560Z,11.60
2017-09-29T11:38:25.238Z,12.30
2017-09-29T11:40:51.912Z,11.90
2017-09-29T11:43:18.570Z,11.17
2017-09-29T11:45:45.373Z,10.20
2017-09-29T11:48:12.029Z,12.00
2017-09-29T11:50:38.678Z,11.83
2017-09-29T11:53:05.354Z,12.10
2017-09-29T11:55:31.995Z,10.80
2017-09-29T11:57:58.668Z,10.07
2017-09-29T12:00:25.326Z,12.53
2017-09-29T12:02:51.998Z,12.70
2017-09-29T12:05:18.945Z,11.37
2017-09-29T12:07:45.600Z,13.50
2017-09-29T12:10:12.510Z,11.00
2017-09-29T12:12:39.174Z,10.40
2017-09-29T12:15:05.852Z,9.73
2017-09-29T12:17:32.509Z,10.10
2017-09-29T12:19:59.175Z,8.97
2017-09-29T12:22:25.842Z,10.00
2017-09-29T12:24:52.594Z,9.90
2017-09-29T12:27:19.635Z,9.00
2017-09-29T12:29:46.282Z,10.57
2017-09-29T12:32:12.937Z,11.10
2017-09-29T12:34:39.604Z,10.87
2017-09-29T12:37:06.251Z,9.90
2017-09-29T12:39:32.928Z,10.20
2017-09-29T12:41:59.587Z,10.60
2017-09-29T12:44:26.237Z,10.57
2017-09-29T12:46:52.913Z,9.83
2017-09-29T12:49:19.576Z,9.57
2017-09-29T12:51:46.246Z,8.70
2017-09-29T12:54:12.920Z,10.20
2017-09-29T12:56:39.582Z,8.50
2017-09-29T12:59:06.227Z,8.67
2017-09-29T13:01:33.220Z,8.17
2017-09-29T13:03:59.876Z,8.77
2017-09-29T13:06:26.550Z,8.20
2017-09-29T13:08:53.220Z,8.90
2017-09-29T13:11:20.089Z,9.67
2017-09-29T13:13:46.740Z,7.90
2017-09-29T13:16:13.382Z,6.77
2017-09-29T13:18:40.077Z,8.70
2017-09-29T13:21:06.750Z,8.13
2017-09-29T13:23:33.421Z,8.67
2017-09-29T13:26:00.065Z,8.77
2017-09-29T13:28:26.733Z,8.33
2017-09-29T13:30:53.375Z,9.70
2017-09-29T13:33:21.760Z,8.93
2017-09-29T13:35:48.513Z,9.10
2017-09-29T13:38:15.190Z,9.20
2017-09-29T13:40:41.869Z,9.53
2017-09-29T13:43:08.520Z,9.53
2017-09-29T13:45:35.161Z,9.40
2017-09-29T13:48:01.820Z,10.50
2017-09-29T13:50:28.478Z,8.87
2017-09-29T13:52:55.249Z,8.47
2017-09-29T13:55:21.901Z,10.10
2017-09-29T13:57:48.541Z,8.37
2017-09-29T14:00:15.460Z,9.27
2017-09-29T14:02:42.104Z,8.00
2017-09-29T14:05:08.768Z,10.20
2017-09-29T14:07:35.456Z,10.03
2017-09-29T14:10:02.108Z,9.90
2017-09-29T14:12:28.791Z,14.17
2017-09-29T14:14:55.473Z,10.80
2017-09-29T14:17:22.152Z,15.13
2017-09-29T14:19:48.828Z,37.30
2017-09-29T14:22:15.832Z,12.57
2017-09-29T14:24:42.674Z,12.30
2017-09-29T14:27:09.325Z,10.90
2017-09-29T14:29:36.001Z,11.37
2017-09-29T14:32:02.653Z,12.27
2017-09-29T14:34:29.456Z,11.80
2017-09-29T14:36:57.081Z,12.33
2017-09-29T14:39:23.749Z,13.50
2017-09-29T14:41:50.428Z,11.70
2017-09-29T14:44:17.071Z,13.03
2017-09-29T14:46:43.760Z,11.80
2017-09-29T14:49:10.416Z,13.43
2017-09-29T14:51:37.074Z,14.23
2017-09-29T14:54:03.906Z,14.10
2017-09-29T14:56:30.568Z,15.77
2017-09-29T14:58:57.227Z,16.73
2017-09-29T15:01:24.139Z,15.00
2017-09-29T15:03:50.787Z,14.40
2017-09-29T15:06:17.440Z,15.17
2017-09-29T15:08:44.119Z,14.87
2017-09-29T15:11:10.792Z,16.70
2017-09-29T15:13:38.879Z,17.10
2017-09-29T15:16:05.620Z,16.83
2017-09-29T15:18:32.294Z,14.97
2017-09-29T15:20:58.964Z,16.77
2017-09-29T15:23:25.617Z,15.87
2017-09-29T15:25:52.260Z,21.43
2017-09-29T15:28:18.925Z,16.40
2017-09-29T15:30:45.699Z,16.10
2017-09-29T15:33:12.347Z,17.30
2017-09-29T15:35:38.997Z,16.43
2017-09-29T15:38:05.675Z,18.47
2017-09-29T15:40:32.349Z,16.00
2017-09-29T15:42:59.002Z,17.67
2017-09-29T15:45:25.823Z,16.53
2017-09-29T15:47:52.493Z,16.10
2017-09-29T15:50:19.145Z,15.20
2017-09-29T15:52:46.050Z,17.03
2017-09-29T15:55:12.713Z,15.93
2017-09-29T15:57:39.371Z,17.03
2017-09-29T16:00:06.056Z,16.40
2017-09-29T16:02:32.709Z,17.40
2017-09-29T16:04:59.392Z,16.23
2017-09-29T16:07:26.042Z,16.60
2017-09-29T16:09:52.688Z,17.20
2017-09-29T16:12:19.352Z,17.70
2017-09-29T16:14:46.000Z,21.60
2017-09-29T16:17:12.960Z,20.10
2017-09-29T16:19:39.627Z,17.07
2017-09-29T16:22:06.281Z,19.77
2017-09-29T16:24:33.202Z,18.30
2017-09-29T16:26:59.868Z,19.60
2017-09-29T16:29:26.528Z,17.40
2017-09-29T16:31:53.209Z,17.43
2017-09-29T16:34:19.880Z,17.73
2017-09-29T16:36:46.572Z,17.90
2017-09-29T16:39:13.650Z,18.37
2017-09-29T16:41:40.297Z,18.90
2017-09-29T16:44:06.972Z,18.70
2017-09-29T16:46:33.661Z,19.53
2017-09-29T16:49:00.304Z,20.73
2017-09-29T16:51:26.950Z,17.10
2017-09-29T16:53:53.616Z,19.17
2017-09-29T16:56:20.261Z,20.50
2017-09-29T16:58:46.919Z,19.30
2017-09-29T17:01:13.592Z,20.27
2017-09-29T17:03:40.251Z,18.30
2017-09-29T17:06:07.033Z,18.67
2017-09-29T17:08:33.829Z,20.20
2017-09-29T17:11:00.476Z,20.00
2017-09-29T17:13:27.120Z,20.50
2017-09-29T17:15:53.789Z,21.23
2017-09-29T17:18:20.443Z,22.30
2017-09-29T17:20:47.270Z,24.47
2017-09-29T17:23:14.013Z,21.17
2017-09-29T17:25:40.665Z,23.30
2017-09-29T17:28:07.349Z,20.90
2017-09-29T17:30:34.011Z,24.60
2017-09-29T17:33:00.832Z,29.20
2017-09-29T17:35:27.485Z,24.00
2017-09-29T17:37:54.136Z,21.10
2017-09-29T17:40:20.809Z,21.50
2017-09-29T17:42:47.461Z,25.00
2017-09-29T17:45:14.114Z,25.10
2017-09-29T17:47:40.780Z,26.27
2017-09-29T17:50:07.427Z,24.13
2017-09-29T17:52:34.100Z,23.50
2017-09-29T17:55:00.751Z,19.70
2017-09-29T17:57:27.700Z,20.57
2017-09-29T17:59:54.375Z,20.20
2017-09-29T18:02:21.041Z,21.30
2017-09-29T18:04:47.709Z,22.30
2017-09-29T18:07:14.369Z,20.63
2017-09-29T18:09:41.053Z,21.07
2017-09-29T18:12:07.959Z,21.17
2017-09-29T18:14:34.616Z,19.77
2017-09-29T18:17:01.264Z,21.27
2017-09-29T18:19:28.138Z,19.57
2017-09-29T18:21:54.779Z,19.53
2017-09-29T18:24:21.437Z,20.20
2017-09-29T18:26:48.312Z,21.70
2017-09-29T18:29:14.961Z,19.20
2017-09-29T18:31:41.795Z,20.07
2017-09-29T18:34:08.447Z,18.93
2017-09-29T18:36:35.386Z,20.53
2017-09-29T18:39:02.049Z,19.80
2017-09-29T18:41:32.234Z,19.20
2017-09-29T18:44:00.845Z,20.90
2017-09-29T18:46:30.945Z,20.67
2017-09-29T18:48:57.625Z,21.23
2017-09-29T18:51:24.311Z,22.03
2017-09-29T18:53:50.961Z,22.60
2017-09-29T18:56:17.624Z,24.97
2017-09-29T18:58:44.278Z,23.83
2017-09-29T19:01:10.980Z,23.97
2017-09-29T19:03:37.630Z,24.50
2017-09-29T19:06:04.271Z,25.73
2017-09-29T19:08:31.135Z,26.90
2017-09-29T19:10:57.791Z,26.87
2017-09-29T19:13:24.460Z,24.57
2017-09-29T19:15:51.148Z,26.57
2017-09-29T19:25:00.468Z,66.13
2017-09-29T19:27:27.136Z,29.60
2017-09-29T19:29:54.138Z,26.60
2017-09-29T19:32:20.784Z,28.60
2017-09-29T19:34:47.432Z,25.90
2017-09-29T19:37:14.104Z,25.53
2017-09-29T19:39:41.110Z,25.97
2017-09-29T19:42:08.687Z,24.20
2017-09-29T19:44:35.366Z,24.43
2017-09-29T19:47:02.024Z,26.37
2017-09-29T19:49:28.699Z,26.23
2017-09-29T19:51:55.399Z,26.40
2017-09-29T19:54:22.052Z,50.93
2017-09-29T19:56:48.704Z,81.13
2017-09-29T19:59:15.680Z,37.57
2017-09-29T20:01:42.324Z,28.47
2017-09-29T20:04:08.980Z,27.00
2017-09-29T20:06:36.142Z,27.20
2017-09-29T20:09:02.793Z,26.90
2017-09-29T20:11:29.444Z,24.33
2017-09-29T20:13:57.017Z,24.40
2017-09-29T20:16:23.776Z,23.20
2017-09-29T20:18:50.489Z,22.47
2017-09-29T20:21:17.382Z,24.97
2017-09-29T20:23:44.053Z,24.47
2017-09-29T20:26:10.705Z,26.67
2017-09-29T20:28:38.085Z,23.77
2017-09-29T20:31:04.752Z,25.87
2017-09-29T20:33:31.406Z,24.50
2017-09-29T20:35:58.080Z,25.73
2017-09-29T20:38:24.893Z,27.33
2017-09-29T20:40:51.553Z,26.50
2017-09-29T20:43:18.399Z,31.30
2017-09-29T20:45:45.081Z,38.67
2017-09-29T20:48:11.762Z,29.73
2017-09-29T20:50:38.421Z,27.90
2017-09-29T20:53:05.089Z,26.33
2017-09-29T20:55:32.143Z,26.90
2017-09-29T20:57:58.807Z,26.33
2017-09-29T21:00:25.813Z,25.50
2017-09-29T21:02:52.512Z,26.37
2017-09-29T21:05:19.582Z,27.27
2017-09-29T21:07:46.241Z,26.80
2017-09-29T21:10:13.228Z,25.90
2017-09-29T21:12:39.909Z,26.00
2017-09-29T21:15:06.581Z,27.90
2017-09-29T21:17:33.239Z,25.90
2017-09-29T21:19:59.925Z,27.70
2017-09-29T21:22:26.597Z,27.53
2017-09-29T21:24:53.280Z,27.87
2017-09-29T21:27:19.954Z,25.97
2017-09-29T21:29:46.605Z,23.90
2017-09-29T21:32:13.285Z,28.10
2017-09-29T21:34:39.937Z,28.80
2017-09-29T21:37:06.580Z,29.33
2017-09-29T21:39:33.264Z,26.73
2017-09-29T21:41:59.912Z,29.00
2017-09-29T21:44:26.812Z,32.17
2017-09-29T21:46:53.459Z,30.17
2017-09-29T21:49:20.104Z,29.00
2017-09-29T21:51:47.172Z,30.20
2017-09-29T21:54:13.856Z,28.20
2017-09-29T21:56:40.499Z,28.80
2017-09-29T21:59:07.171Z,29.20
2017-09-29T22:01:33.856Z,29.67
2017-09-29T22:04:00.519Z,29.27
2017-09-29T22:06:27.206Z,27.53
2017-09-29T22:08:53.884Z,31.40
2017-09-29T22:11:20.804Z,31.27
2017-09-29T22:13:47.452Z,31.00
2017-09-29T22:16:14.100Z,29.70
2017-09-29T22:18:40.776Z,29.87
2017-09-29T22:21:07.457Z,28.70
2017-09-29T22:23:34.111Z,25.80
2017-09-29T22:26:00.876Z,29.07
2017-09-29T22:28:27.535Z,28.87
2017-09-29T22:30:54.188Z,30.77
2017-09-29T22:33:20.864Z,29.63
2017-09-29T22:35:47.511Z,28.37
2017-09-29T22:38:14.177Z,29.10
2017-09-29T22:40:40.827Z,27.33
2017-09-29T22:43:07.856Z,27.40
2017-09-29T22:45:34.500Z,28.50
2017-09-29T22:48:01.166Z,27.53
2017-09-29T22:50:28.082Z,28.60
2017-09-29T22:52:54.738Z,26.27
2017-09-29T22:55:21.497Z,27.10
2017-09-29T22:57:48.608Z,24.27
2017-09-29T23:00:15.260Z,26.20
2017-09-29T23:02:41.948Z,27.90
2017-09-29T23:05:08.618Z,26.50
2017-09-29T23:07:35.304Z,26.00
2017-09-29T23:10:01.994Z,27.57
2017-09-29T23:12:28.783Z,26.30
2017-09-29T23:14:55.432Z,26.67
2017-09-29T23:17:22.080Z,27.30
2017-09-29T23:19:48.751Z,30.93
2017-09-29T23:22:15.412Z,27.40
2017-09-29T23:24:42.090Z,30.30
2017-09-29T23:27:08.740Z,28.87
2017-09-29T23:29:35.408Z,30.90
2017-09-29T23:32:02.058Z,28.73
2017-09-29T23:34:28.743Z,28.93
2017-09-29T23:36:55.397Z,30.77
2017-09-29T23:39:22.141Z,32.10
2017-09-29T23:41:48.819Z,31.30
2017-09-29T23:44:15.473Z,30.10
2017-09-29T23:46:42.122Z,31.20
2017-09-29T23:49:08.806Z,30.40
2017-09-29T23:51:35.452Z,31.50
2017-09-29T23:54:02.099Z,33.83
2017-09-29T23:56:29.024Z,33.13
2017-09-29T23:58:55.681Z,34.50
